Time;durP1;ratioP1;P1;durP2;ratioP2;P2;SDS_P1;SDS_P2;PMS_P1;PMS_P2;Temp;Humidity;BMP_temperature;BMP_pressure;BME280_temperature;BME280_humidity;BME280_pressure;Samples;Min_cycle;Max_cycle;Signal;HPM_P1;HPM_P2
2022/02/22 00:03:06;;;;;;;9.30;2.83;;;4.80;99.90;;;;;;5079115;28;20092;-60
2022/02/22 00:06:31;;;;;;;8.18;2.05;;;4.80;99.90;;;;;;5056253;28;20032;-60
2022/02/22 00:09:57;;;;;;;15.52;2.10;;;4.80;99.90;;;;;;5072801;28;20438;-59
2022/02/22 00:13:23;;;;;;;10.43;1.90;;;4.80;99.90;;;;;;5074760;28;20044;-59
2022/02/22 00:16:47;;;;;;;10.10;1.90;;;4.90;99.90;;;;;;5075190;28;20561;-59
2022/02/22 00:20:13;;;;;;;5.65;1.10;;;4.90;99.90;;;;;;5062669;28;20041;-60
2022/02/22 00:23:38;;;;;;;8.18;1.60;;;4.90;99.90;;;;;;5070153;28;20534;-59
2022/02/22 00:27:03;;;;;;;7.13;1.73;;;4.90;99.90;;;;;;5083544;28;20116;-59
2022/02/22 00:30:29;;;;;;;11.48;1.63;;;4.90;99.90;;;;;;5072973;28;20035;-60
2022/02/22 00:33:54;;;;;;;5.88;1.70;;;4.90;99.90;;;;;;5077558;28;20458;-60
2022/02/22 00:37:19;;;;;;;8.10;1.65;;;4.90;99.90;;;;;;5070881;28;20040;-59
2022/02/22 00:40:45;;;;;;;6.43;1.38;;;4.90;99.90;;;;;;5073405;28;20127;-59
2022/02/22 00:44:10;;;;;;;10.98;1.50;;;4.90;99.90;;;;;;5068293;28;20104;-60
2022/02/22 00:47:36;;;;;;;6.97;1.95;;;4.90;99.90;;;;;;5067622;28;20036;-60
2022/02/22 00:51:01;;;;;;;11.55;1.30;;;5.00;99.90;;;;;;5072660;28;20479;-60
2022/02/22 00:54:26;;;;;;;7.15;1.60;;;5.00;99.90;;;;;;5078375;28;20033;-60
2022/02/22 00:57:52;;;;;;;7.07;1.55;;;5.00;99.90;;;;;;5059850;28;20492;-59
2022/02/22 01:01:17;;;;;;;13.30;1.90;;;5.00;99.90;;;;;;5074750;28;20154;-59
2022/02/22 01:04:43;;;;;;;9.38;1.42;;;5.00;99.90;;;;;;5088100;28;20519;-60
2022/02/22 01:08:08;;;;;;;3.60;1.10;;;5.00;99.90;;;;;;5081371;28;20399;-60
2022/02/22 01:11:33;;;;;;;9.43;1.77;;;5.00;99.90;;;;;;5077456;28;20066;-59
2022/02/22 01:14:59;;;;;;;10.35;1.42;;;5.10;99.90;;;;;;5050286;28;20481;-60
2022/02/22 01:18:24;;;;;;;6.22;1.15;;;5.10;99.90;;;;;;5085418;28;20309;-60
2022/02/22 01:21:49;;;;;;;5.60;1.20;;;5.10;99.90;;;;;;5059024;28;20040;-59
2022/02/22 01:25:15;;;;;;;3.90;1.45;;;5.10;99.90;;;;;;5050082;28;20045;-60
2022/02/22 01:28:40;;;;;;;5.88;1.42;;;5.20;99.90;;;;;;5049582;28;20481;-60
2022/02/22 01:32:05;;;;;;;7.57;1.30;;;5.10;99.90;;;;;;5069225;28;20043;-59
2022/02/22 01:35:31;;;;;;;5.43;1.02;;;5.20;99.90;;;;;;5078602;28;20479;-59
2022/02/22 01:38:56;;;;;;;4.43;1.30;;;5.20;99.90;;;;;;5085426;28;20070;-60
2022/02/22 01:42:22;;;;;;;7.57;1.88;;;5.20;99.90;;;;;;5083902;28;20514;-60
2022/02/22 01:45:47;;;;;;;7.22;1.35;;;5.20;99.90;;;;;;5049547;28;20539;-60
2022/02/22 01:49:12;;;;;;;4.95;1.40;;;5.20;99.90;;;;;;5075441;28;20039;-60
2022/02/22 01:52:38;;;;;;;7.47;1.65;;;5.20;99.90;;;;;;5067433;28;20407;-60
2022/02/22 01:56:03;;;;;;;2.30;1.15;;;5.10;99.90;;;;;;5076758;28;20052;-60
2022/02/22 01:59:28;;;;;;;6.47;1.33;;;5.10;99.90;;;;;;5084299;28;20079;-60
2022/02/22 02:02:55;;;;;;;8.75;1.10;;;5.10;99.90;;;;;;5064520;28;20043;-60
2022/02/22 02:06:19;;;;;;;4.13;0.77;;;5.00;99.90;;;;;;5081690;28;20044;-60
2022/02/22 02:09:45;;;;;;;9.07;1.45;;;5.00;99.90;;;;;;5078053;28;20044;-60
2022/02/22 02:13:10;;;;;;;2.85;1.10;;;5.00;99.90;;;;;;5063658;28;20028;-60
2022/02/22 02:16:35;;;;;;;4.95;1.10;;;4.80;99.90;;;;;;5083514;28;20548;-59
2022/02/22 02:20:01;;;;;;;7.25;0.80;;;4.70;99.90;;;;;;5088736;28;20050;-60
2022/02/22 02:23:26;;;;;;;5.53;1.25;;;4.60;99.90;;;;;;5076074;28;20048;-60
2022/02/22 02:26:51;;;;;;;4.35;1.05;;;4.60;99.90;;;;;;5049889;28;20036;-60
2022/02/22 02:30:17;;;;;;;5.80;2.15;;;4.40;99.90;;;;;;5048688;28;20051;-59
2022/02/22 02:33:42;;;;;;;3.70;1.13;;;4.50;99.90;;;;;;5080623;28;20450;-60
2022/02/22 02:37:07;;;;;;;3.38;0.90;;;4.60;99.90;;;;;;5081275;28;20028;-60
2022/02/22 02:40:33;;;;;;;6.15;1.20;;;4.60;99.90;;;;;;5048716;28;20037;-60
2022/02/22 02:43:58;;;;;;;5.22;1.35;;;4.70;99.90;;;;;;5081669;28;20122;-60
2022/02/22 02:47:24;;;;;;;8.30;1.40;;;4.70;99.90;;;;;;5069665;28;20565;-60
2022/02/22 02:50:49;;;;;;;5.40;1.23;;;4.80;99.90;;;;;;5081092;28;20035;-60
2022/02/22 02:54:14;;;;;;;9.90;1.35;;;4.80;99.90;;;;;;5077561;28;20039;-60
2022/02/22 02:57:40;;;;;;;4.78;1.17;;;4.80;99.90;;;;;;5082905;28;20039;-60
2022/02/22 03:01:05;;;;;;;5.38;1.30;;;4.70;99.90;;;;;;5077186;28;20059;-60
2022/02/22 03:04:30;;;;;;;4.13;1.00;;;4.50;99.90;;;;;;5077314;28;20436;-60
2022/02/22 03:07:59;;;;;;;5.80;1.20;;;4.30;99.90;;;;;;5064509;28;20036;-60
2022/02/22 03:11:21;;;;;;;7.22;1.27;;;4.20;99.90;;;;;;5076177;28;20047;-60
2022/02/22 03:14:48;;;;;;;5.60;1.17;;;4.30;99.90;;;;;;5076849;28;20042;-60
2022/02/22 03:18:12;;;;;;;7.20;1.20;;;4.40;99.90;;;;;;5062120;28;20048;-60
2022/02/22 03:21:37;;;;;;;7.38;1.60;;;4.60;99.90;;;;;;5082204;28;20082;-59
2022/02/22 03:25:03;;;;;;;5.45;1.15;;;4.70;99.90;;;;;;5092319;28;20044;-60
2022/02/22 03:28:28;;;;;;;8.88;1.40;;;4.80;99.90;;;;;;5071872;28;20051;-60
2022/02/22 03:31:53;;;;;;;8.63;1.38;;;4.80;99.90;;;;;;5086744;28;20036;-60
2022/02/22 03:35:19;;;;;;;14.88;2.22;;;4.80;99.90;;;;;;5052249;28;20108;-60
2022/02/22 03:38:44;;;;;;;5.68;1.40;;;4.90;99.90;;;;;;5084752;28;20106;-59
2022/02/22 03:42:09;;;;;;;8.93;1.48;;;4.90;99.90;;;;;;5084197;28;20407;-58
2022/02/22 03:45:35;;;;;;;3.75;1.25;;;5.00;99.90;;;;;;5051787;28;20087;-59
2022/02/22 03:49:00;;;;;;;8.40;1.23;;;4.90;99.90;;;;;;5083973;28;20028;-60
2022/02/22 03:52:26;;;;;;;4.55;1.30;;;4.90;99.90;;;;;;5086305;28;20120;-60
2022/02/22 03:55:51;;;;;;;4.10;1.10;;;4.90;99.90;;;;;;5080128;28;20039;-60
2022/02/22 03:59:16;;;;;;;6.68;1.20;;;5.00;99.90;;;;;;5081006;28;20042;-60
2022/02/22 04:02:42;;;;;;;10.25;1.85;;;5.00;99.90;;;;;;5086287;28;20036;-59
2022/02/22 04:06:07;;;;;;;8.98;1.40;;;5.00;99.90;;;;;;5051595;28;20128;-60
2022/02/22 04:09:32;;;;;;;9.23;1.40;;;5.00;99.90;;;;;;5051689;28;20033;-60
2022/02/22 04:12:58;;;;;;;6.95;1.80;;;5.00;99.90;;;;;;5075384;28;20032;-60
2022/02/22 04:16:23;;;;;;;13.50;1.60;;;5.00;99.90;;;;;;5051618;28;20447;-60
2022/02/22 04:19:49;;;;;;;8.43;1.85;;;5.10;99.90;;;;;;5079859;28;20036;-60
2022/02/22 04:23:14;;;;;;;7.43;1.58;;;5.10;99.90;;;;;;5076061;28;20130;-60
2022/02/22 04:26:39;;;;;;;6.72;1.40;;;5.10;99.90;;;;;;5049202;28;20225;-58
2022/02/22 04:30:04;;;;;;;11.60;1.73;;;5.10;99.90;;;;;;5091053;28;20113;-60
2022/02/22 04:33:30;;;;;;;5.40;1.52;;;5.10;99.90;;;;;;5078643;28;20058;-60
2022/02/22 04:36:55;;;;;;;8.15;1.65;;;5.10;99.90;;;;;;5085297;28;20068;-60
2022/02/22 04:40:21;;;;;;;9.18;2.20;;;5.10;99.90;;;;;;5050733;28;20397;-59
2022/02/22 04:43:46;;;;;;;7.22;2.00;;;5.10;99.90;;;;;;5060931;28;20115;-51
2022/02/22 04:47:11;;;;;;;10.15;1.85;;;5.10;99.90;;;;;;5077868;28;20062;-52
2022/02/22 04:50:37;;;;;;;11.80;2.08;;;5.00;99.90;;;;;;5090816;28;20062;-51
2022/02/22 04:54:02;;;;;;;16.33;1.88;;;5.00;99.90;;;;;;5087034;28;20032;-52
2022/02/22 04:57:27;;;;;;;11.25;2.00;;;5.00;99.90;;;;;;5071029;28;20404;-52
2022/02/22 05:00:53;;;;;;;13.55;2.63;;;4.90;99.90;;;;;;5086986;28;20047;-52
2022/02/22 05:04:18;;;;;;;12.40;2.10;;;4.90;99.90;;;;;;5079172;28;20032;-54
2022/02/22 05:07:44;;;;;;;14.10;2.42;;;4.90;99.90;;;;;;5084761;28;20036;-54
2022/02/22 05:11:09;;;;;;;16.98;3.55;;;4.90;99.90;;;;;;5081068;28;20216;-53
2022/02/22 05:14:34;;;;;;;14.70;3.25;;;4.90;99.90;;;;;;5050123;28;20041;-51
2022/02/22 05:18:00;;;;;;;10.50;3.13;;;4.80;99.90;;;;;;5065857;28;20491;-52
2022/02/22 05:21:25;;;;;;;16.27;2.95;;;4.80;99.90;;;;;;5078739;28;20105;-52
2022/02/22 05:24:50;;;;;;;13.00;2.45;;;4.80;99.90;;;;;;5078859;28;20076;-50
2022/02/22 05:28:16;;;;;;;11.88;2.80;;;4.70;99.90;;;;;;5085562;28;20040;-51
2022/02/22 05:31:41;;;;;;;15.90;3.08;;;4.40;99.90;;;;;;5072466;28;20035;-51
2022/02/22 05:35:06;;;;;;;10.77;2.45;;;4.20;99.90;;;;;;5086389;28;20032;-53
2022/02/22 05:38:32;;;;;;;12.68;2.40;;;4.00;99.90;;;;;;5069836;28;20062;-53
2022/02/22 05:41:57;;;;;;;12.60;2.17;;;3.70;99.90;;;;;;5078493;28;20072;-50
2022/02/22 05:45:23;;;;;;;12.52;1.42;;;3.50;99.90;;;;;;5078268;28;20032;-53
2022/02/22 05:48:48;;;;;;;11.35;2.42;;;3.50;99.90;;;;;;5068486;28;20093;-54
2022/02/22 05:52:13;;;;;;;11.10;2.28;;;3.40;99.90;;;;;;5078734;28;20040;-54
2022/02/22 05:55:39;;;;;;;13.40;2.55;;;3.30;99.90;;;;;;5078378;28;20442;-53
2022/02/22 05:59:04;;;;;;;9.82;1.80;;;3.20;99.90;;;;;;5061743;28;20245;-56
2022/02/22 06:02:29;;;;;;;9.02;1.60;;;3.10;99.90;;;;;;5085877;28;20075;-55
2022/02/22 06:05:55;;;;;;;6.15;1.63;;;3.00;99.90;;;;;;5078329;28;20066;-54
2022/02/22 06:09:20;;;;;;;13.55;2.42;;;3.10;99.90;;;;;;5062198;28;20400;-53
2022/02/22 06:12:48;;;;;;;14.43;1.92;;;3.10;99.90;;;;;;5075978;28;20027;-50
2022/02/22 06:16:11;;;;;;;15.05;2.47;;;3.20;99.90;;;;;;5089098;28;20487;-53
2022/02/22 06:19:36;;;;;;;13.20;2.10;;;3.40;99.90;;;;;;5066008;28;20040;-56
2022/02/22 06:23:02;;;;;;;14.68;2.08;;;3.50;99.90;;;;;;5075617;28;20044;-56
2022/02/22 06:26:27;;;;;;;10.77;2.97;;;3.70;99.90;;;;;;5089036;28;20043;-54
2022/02/22 06:29:52;;;;;;;13.45;2.10;;;3.80;99.90;;;;;;5080104;28;20036;-53
2022/02/22 06:33:18;;;;;;;25.42;4.75;;;3.90;99.90;;;;;;5059635;28;20423;-53
2022/02/22 06:36:43;;;;;;;26.60;4.57;;;3.90;99.90;;;;;;5059258;28;20044;-53
2022/02/22 06:40:08;;;;;;;15.43;4.07;;;3.90;99.90;;;;;;5081585;28;20056;-54
2022/02/22 06:43:34;;;;;;;21.10;3.65;;;3.80;99.90;;;;;;5062474;28;20030;-51
2022/02/22 06:46:59;;;;;;;13.55;2.78;;;4.00;99.90;;;;;;5080751;28;20036;-50
2022/02/22 06:50:25;;;;;;;15.55;2.40;;;4.20;99.90;;;;;;5074787;28;20060;-55
2022/02/22 06:53:51;;;;;;;15.07;2.70;;;4.60;99.90;;;;;;5087691;28;20067;-51
2022/02/22 06:57:15;;;;;;;10.13;2.47;;;5.60;99.90;;;;;;5078525;28;20032;-54
2022/02/22 07:00:43;;;;;;;13.95;2.28;;;6.40;99.90;;;;;;5067977;28;20121;-53
2022/02/22 07:04:06;;;;;;;17.58;3.40;;;6.50;99.90;;;;;;5075486;28;20403;-56
2022/02/22 07:07:31;;;;;;;21.77;2.53;;;6.60;97.10;;;;;;5064555;28;20321;-54
2022/02/22 07:10:57;;;;;;;12.55;2.92;;;7.20;98.40;;;;;;5065557;28;20029;-50
2022/02/22 07:14:22;;;;;;;12.07;3.00;;;6.90;99.90;;;;;;5083457;28;20040;-55
2022/02/22 07:17:47;;;;;;;17.52;2.85;;;7.30;96.80;;;;;;5087556;28;20093;-51
2022/02/22 07:21:13;;;;;;;15.93;2.55;;;7.70;94.30;;;;;;5062832;28;20074;-54
2022/02/22 07:24:38;;;;;;;15.00;2.90;;;7.10;98.20;;;;;;5078113;28;20051;-51
2022/02/22 07:28:04;;;;;;;14.48;3.20;;;7.10;97.10;;;;;;5074904;28;20032;-48
2022/02/22 07:31:29;;;;;;;18.48;3.78;;;6.60;99.90;;;;;;5068905;28;20040;-49
2022/02/22 07:34:54;;;;;;;21.50;3.65;;;7.30;99.90;;;;;;5079094;28;20449;-50
2022/02/22 07:38:20;;;;;;;16.95;2.97;;;8.50;94.30;;;;;;5076479;28;20035;-50
2022/02/22 07:41:45;;;;;;;11.75;3.10;;;10.40;73.50;;;;;;5064022;28;20133;-55
2022/02/22 07:45:10;;;;;;;13.23;2.72;;;10.10;66.30;;;;;;5081607;28;20028;-51
2022/02/22 07:48:36;;;;;;;19.13;3.92;;;9.10;76.20;;;;;;5085319;28;20083;-49
2022/02/22 07:52:01;;;;;;;13.13;3.03;;;9.70;75.70;;;;;;5080579;28;20280;-52
2022/02/22 07:55:27;;;;;;;12.70;2.85;;;10.00;72.00;;;;;;5073845;28;20502;-51
2022/02/22 07:58:52;;;;;;;13.85;3.65;;;11.30;61.30;;;;;;5086915;28;20032;-50
2022/02/22 08:02:17;;;;;;;11.20;3.25;;;13.20;46.20;;;;;;5083554;28;20044;-52
2022/02/22 08:05:43;;;;;;;8.65;2.42;;;14.80;35.70;;;;;;5081623;28;20051;-55
2022/02/22 08:09:08;;;;;;;11.32;2.88;;;16.20;34.30;;;;;;5050310;28;20032;-52
2022/02/22 08:12:33;;;;;;;13.32;2.78;;;16.80;24.30;;;;;;5087167;28;20124;-52
2022/02/22 08:15:59;;;;;;;13.90;3.42;;;14.50;28.60;;;;;;5073869;28;20072;-49
2022/02/22 08:19:24;;;;;;;14.23;3.55;;;13.80;35.30;;;;;;5071534;28;20044;-52
2022/02/22 08:22:51;;;;;;;13.70;2.90;;;15.90;25.90;;;;;;5083884;28;20028;-50
2022/02/22 08:26:16;;;;;;;12.13;2.72;;;16.50;25.80;;;;;;5077201;28;20037;-50
2022/02/22 08:29:40;;;;;;;13.85;2.92;;;16.70;26.70;;;;;;5078604;28;20666;-51
2022/02/22 08:33:06;;;;;;;15.68;2.88;;;17.00;23.90;;;;;;5079289;28;20031;-54
2022/02/22 08:36:31;;;;;;;10.57;3.35;;;15.70;22.70;;;;;;5063203;28;20404;-52
2022/02/22 08:39:56;;;;;;;9.98;2.65;;;16.10;22.80;;;;;;5084319;28;20113;-53
2022/02/22 08:43:22;;;;;;;11.80;2.25;;;14.60;27.40;;;;;;5086266;28;20047;-49
2022/02/22 08:46:48;;;;;;;12.27;3.20;;;13.30;29.10;;;;;;5079124;28;20032;-52
2022/02/22 08:50:12;;;;;;;12.60;2.47;;;12.20;33.00;;;;;;5076275;28;20558;-49
2022/02/22 08:53:40;;;;;;;18.63;3.03;;;11.80;44.00;;;;;;5049749;28;20055;-54
2022/02/22 08:57:03;;;;;;;12.95;3.20;;;11.10;41.70;;;;;;5082465;28;20028;-49
2022/02/22 09:00:31;;;;;;;17.20;2.92;;;11.50;41.20;;;;;;5081882;28;20044;-54
2022/02/22 09:03:54;;;;;;;9.38;2.38;;;11.90;39.50;;;;;;5049549;28;20041;-52
2022/02/22 09:07:19;;;;;;;8.93;2.45;;;11.30;41.60;;;;;;5085932;28;20404;-52
2022/02/22 09:10:45;;;;;;;7.68;2.47;;;10.90;44.60;;;;;;5068842;28;20036;-50
2022/02/22 09:14:10;;;;;;;10.43;2.20;;;10.40;45.20;;;;;;5080407;28;20499;-55
2022/02/22 09:17:35;;;;;;;9.32;2.13;;;10.10;53.50;;;;;;5085791;28;20036;-48
2022/02/22 09:21:01;;;;;;;14.73;2.55;;;9.50;53.30;;;;;;5083211;28;20069;-54
2022/02/22 09:24:26;;;;;;;7.88;2.45;;;9.50;54.10;;;;;;5077411;28;20079;-52
2022/02/22 09:27:52;;;;;;;20.13;3.50;;;9.50;58.50;;;;;;5081046;28;20452;-52
2022/02/22 09:31:17;;;;;;;13.38;2.45;;;9.90;53.00;;;;;;5064598;28;20082;-52
2022/02/22 09:34:42;;;;;;;9.75;1.95;;;10.10;46.20;;;;;;5078185;28;20496;-52
2022/02/22 09:38:08;;;;;;;9.05;2.25;;;10.80;43.40;;;;;;5062830;28;20036;-51
2022/02/22 09:41:33;;;;;;;14.27;3.08;;;10.80;43.50;;;;;;5061940;28;20048;-53
2022/02/22 09:45:13;;;;;;;9.63;2.50;;;11.10;44.00;;;;;;5079325;28;20743;-48
2022/02/22 09:48:39;;;;;;;10.30;2.00;;;10.60;42.20;;;;;;5048517;28;20033;-50
2022/02/22 09:52:05;;;;;;;11.07;3.35;;;10.10;48.40;;;;;;5065111;28;20531;-51
2022/02/22 09:55:29;;;;;;;5.38;1.77;;;9.50;51.90;;;;;;5081405;28;20043;-50
2022/02/22 09:58:55;;;;;;;8.02;1.80;;;9.30;53.50;;;;;;5077387;28;20039;-51
2022/02/22 10:02:26;;;;;;;12.32;2.72;;;9.00;58.70;;;;;;5083044;28;20113;-53
2022/02/22 10:05:52;;;;;;;9.55;2.28;;;8.70;58.10;;;;;;5080279;28;20025;-49
2022/02/22 10:09:17;;;;;;;12.02;2.10;;;8.40;61.30;;;;;;5085394;28;20039;-48
2022/02/22 10:12:48;;;;;;;8.23;1.67;;;8.20;60.00;;;;;;5062670;28;20097;-47
2022/02/22 10:16:17;;;;;;;12.77;2.22;;;8.00;66.10;;;;;;5063960;28;20386;-51
2022/02/22 10:19:22;;;;;;;;;;;7.80;65.20;;;;;;5048607;28;20045;-47
2022/02/22 10:22:48;;;;;;;13.95;2.47;;;8.00;65.50;;;;;;5065365;28;19908;-53
2022/02/22 10:26:16;;;;;;;9.32;2.05;;;8.30;63.10;;;;;;5064533;28;20500;-49
2022/02/22 10:29:41;;;;;;;7.20;1.63;;;8.50;61.70;;;;;;5077016;28;20043;-52
2022/02/22 10:33:07;;;;;;;8.55;2.03;;;8.40;62.90;;;;;;5084319;28;20038;-49
2022/02/22 10:36:38;;;;;;;8.25;2.45;;;8.20;67.00;;;;;;5068744;28;20496;-52
2022/02/22 10:40:03;;;;;;;9.65;2.05;;;7.90;68.10;;;;;;5080205;28;20040;-48
2022/02/22 10:42:49;;;;;;;11.75;2.53;;;7.70;71.50;;;;;;5080467;28;20496;-53
2022/02/22 10:45:14;;;;;;;7.03;2.25;;;7.80;74.70;;;;;;5085985;28;20032;-55
2022/02/22 10:47:40;;;;;;;6.68;1.77;;;7.90;73.60;;;;;;5087492;28;20282;-57
2022/02/22 10:50:06;;;;;;;8.98;1.83;;;8.00;72.80;;;;;;5085939;28;20016;-56
2022/02/22 10:52:31;;;;;;;10.70;2.47;;;8.40;69.80;;;;;;5087933;28;20119;-54
2022/02/22 10:55:02;;;;;;;9.52;2.63;;;8.60;66.10;;;;;;5085713;28;20104;-56
2022/02/22 10:57:28;;;;;;;9.40;2.22;;;8.80;59.50;;;;;;5069670;28;20038;-54
2022/02/22 10:59:54;;;;;;;5.38;1.52;;;8.80;60.10;;;;;;5084862;28;20036;-51
2022/02/22 11:02:19;;;;;;;8.82;2.30;;;8.80;60.30;;;;;;5087680;28;20232;-53
2022/02/22 11:04:45;;;;;;;8.43;1.67;;;9.00;57.40;;;;;;5085732;28;20403;-56
2022/02/22 11:07:17;;;;;;;8.63;1.95;;;8.80;65.60;;;;;;5087946;28;20021;-52
2022/02/22 11:09:46;;;;;;;7.32;1.85;;;8.50;72.40;;;;;;5053780;28;20027;-55
2022/02/22 11:12:35;;;;;;;9.32;1.90;;;8.20;79.10;;;;;;5087607;28;20035;-54
2022/02/22 11:15:31;;;;;;;6.30;1.98;;;8.00;85.40;;;;;;5058672;28;20035;-52
2022/02/22 11:18:01;;;;;;;10.77;1.93;;;7.80;89.90;;;;;;5087655;28;20448;-50
2022/02/22 11:20:27;;;;;;;7.85;1.95;;;7.70;88.10;;;;;;5065964;28;20098;-51
2022/02/22 11:22:58;;;;;;;7.45;1.80;;;7.70;85.80;;;;;;5087500;28;20495;-53
2022/02/22 11:25:32;;;;;;;11.05;2.40;;;7.80;84.90;;;;;;5085323;28;20399;-54
2022/02/22 11:28:07;;;;;;;5.13;1.58;;;8.00;80.20;;;;;;5047547;28;20036;-57
2022/02/22 11:30:33;;;;;;;5.53;1.70;;;8.30;78.60;;;;;;5067486;28;20032;-54
2022/02/22 11:33:08;;;;;;;8.00;2.03;;;8.60;69.90;;;;;;5087553;28;20274;-54
2022/02/22 11:35:55;;;;;;;5.55;1.52;;;8.80;67.60;;;;;;5050084;28;20028;-56
2022/02/22 11:38:20;;;;;;;6.70;1.70;;;8.90;62.20;;;;;;5047149;28;20053;-53
2022/02/22 11:40:53;;;;;;;9.60;1.67;;;9.10;67.20;;;;;;5072060;28;20067;-56
2022/02/22 11:43:19;;;;;;;7.22;1.50;;;9.00;62.20;;;;;;5065239;28;20055;-53
2022/02/22 11:45:48;;;;;;;8.93;1.67;;;9.10;63.00;;;;;;5076277;28;20029;-53
2022/02/22 11:48:22;;;;;;;8.23;1.70;;;9.30;59.90;;;;;;5090767;28;20020;-56
2022/02/22 11:50:54;;;;;;;10.32;2.25;;;9.40;56.50;;;;;;5075983;28;20361;-56
2022/02/22 11:53:28;;;;;;;8.43;2.33;;;9.50;58.00;;;;;;5050921;28;20500;-55
2022/02/22 11:55:55;;;;;;;6.18;2.40;;;9.50;56.10;;;;;;5062860;28;20110;-56
2022/02/22 11:58:24;;;;;;;11.25;2.92;;;9.40;56.10;;;;;;5090761;28;20027;-56
2022/02/22 12:00:51;;;;;;;6.88;2.00;;;9.40;54.70;;;;;;5075634;28;20328;-52
2022/02/22 12:03:19;;;;;;;7.57;1.95;;;9.20;52.60;;;;;;5090720;28;20024;-51
2022/02/22 12:05:51;;;;;;;7.05;2.00;;;9.10;55.50;;;;;;5076647;28;20040;-52
2022/02/22 12:08:23;;;;;;;9.02;2.20;;;8.90;57.40;;;;;;5050680;28;20090;-55
2022/02/22 12:10:57;;;;;;;11.40;2.63;;;8.70;65.70;;;;;;5062218;28;20036;-54
2022/02/22 12:13:27;;;;;;;5.90;1.70;;;8.30;74.40;;;;;;5050673;28;20044;-53
2022/02/22 12:15:53;;;;;;;10.48;2.33;;;8.10;82.50;;;;;;5075322;28;20043;-54
2022/02/22 12:18:26;;;;;;;14.77;2.88;;;7.90;84.90;;;;;;5089946;28;20042;-56
2022/02/22 12:20:53;;;;;;;8.68;2.15;;;7.70;89.00;;;;;;5075122;28;20403;-55
2022/02/22 12:23:21;;;;;;;9.45;2.03;;;7.80;89.40;;;;;;5089896;28;20089;-55
2022/02/22 12:25:48;;;;;;;13.23;2.28;;;7.80;85.70;;;;;;5075549;28;20340;-55
2022/02/22 12:28:14;;;;;;;8.38;2.25;;;7.90;86.80;;;;;;5089864;28;20032;-57
2022/02/22 12:30:41;;;;;;;5.95;1.90;;;7.90;85.00;;;;;;5076838;28;20111;-53
2022/02/22 12:33:08;;;;;;;8.57;1.60;;;8.00;83.20;;;;;;5089886;28;20028;-56
2022/02/22 12:35:41;;;;;;;15.15;2.85;;;8.10;81.00;;;;;;5088280;28;20085;-52
2022/02/22 12:38:23;;;;;;;13.02;2.53;;;8.00;82.00;;;;;;5049870;28;20400;-55
2022/02/22 12:40:50;;;;;;;7.68;1.85;;;7.80;87.60;;;;;;5068827;28;20043;-54
2022/02/22 12:43:16;;;;;;;8.63;2.13;;;7.70;91.40;;;;;;5085825;28;20055;-55
2022/02/22 12:45:49;;;;;;;11.65;2.58;;;7.60;96.10;;;;;;5071764;28;20055;-56
2022/02/22 12:48:16;;;;;;;9.48;2.00;;;7.70;97.30;;;;;;5050044;28;20060;-56
2022/02/22 12:50:43;;;;;;;9.88;2.00;;;7.80;99.60;;;;;;5070759;28;20115;-56
2022/02/22 12:53:08;;;;;;;10.00;2.10;;;8.00;96.70;;;;;;5086318;28;20094;-55
2022/02/22 12:55:45;;;;;;;8.65;2.08;;;8.20;95.50;;;;;;5090284;28;20455;-58
2022/02/22 12:58:51;;;;;;;13.43;2.97;;;8.40;90.70;;;;;;5088078;28;20081;-54
2022/02/22 13:02:18;;;;;;;13.25;2.65;;;8.50;85.50;;;;;;5071990;28;20040;-58
2022/02/22 13:05:41;;;;;;;10.27;2.65;;;8.50;82.10;;;;;;5084545;28;20044;-54
2022/02/22 13:09:08;;;;;;;18.27;2.63;;;8.30;71.70;;;;;;5069943;28;20085;-55
2022/02/22 13:12:32;;;;;;;10.73;1.67;;;8.20;71.70;;;;;;5083999;28;20032;-55
2022/02/22 13:16:03;;;;;;;5.85;1.55;;;8.30;63.90;;;;;;5070419;28;20115;-57
2022/02/22 13:19:29;;;;;;;8.68;1.50;;;8.40;59.10;;;;;;5083817;28;20028;-51
2022/02/22 13:23:00;;;;;;;11.93;1.95;;;8.50;62.90;;;;;;5078071;28;20059;-55
2022/02/22 13:26:26;;;;;;;12.07;2.65;;;8.60;55.80;;;;;;5078145;28;20044;-55
2022/02/22 13:29:51;;;;;;;8.40;2.00;;;8.40;57.00;;;;;;5075924;28;20462;-54
2022/02/22 13:33:23;;;;;;;6.60;1.98;;;8.40;57.80;;;;;;5049369;28;20040;-52
2022/02/22 13:36:51;;;;;;;6.28;1.98;;;8.40;56.10;;;;;;5084059;28;20066;-53
2022/02/22 13:39:56;;;;;;;;;;;8.40;55.10;;;;;;5081343;28;20059;-55
2022/02/22 13:43:22;;;;;;;10.63;3.40;;;8.30;54.20;;;;;;5085546;28;19969;-55
2022/02/22 13:46:52;;;;;;;7.35;2.20;;;8.30;55.20;;;;;;5083940;28;20064;-54
2022/02/22 13:50:18;;;;;;;6.10;2.33;;;8.40;55.00;;;;;;5074546;28;20468;-55
2022/02/22 13:53:27;;;;;;;;;;;8.40;54.40;;;;;;5049042;28;20405;-52
2022/02/22 13:56:32;;;;;;;;;;;8.30;51.00;;;;;;5077808;28;20295;-53
2022/02/22 13:59:57;;;;;;;10.38;1.75;;;8.30;51.00;;;;;;5052938;28;20407;-55
2022/02/22 14:03:23;;;;;;;11.30;2.13;;;8.40;50.20;;;;;;5088788;28;20042;-52
2022/02/22 14:06:48;;;;;;;10.95;1.83;;;8.40;47.00;;;;;;5083553;28;20063;-56
2022/02/22 14:10:13;;;;;;;7.60;2.08;;;8.40;47.10;;;;;;5057414;28;20078;-57
2022/02/22 14:13:39;;;;;;;8.35;1.63;;;8.40;47.60;;;;;;5048557;28;20029;-54
2022/02/22 14:17:04;;;;;;;6.18;1.67;;;8.30;45.20;;;;;;5082321;28;20040;-56
2022/02/22 14:20:31;;;;;;;8.95;1.90;;;8.20;43.80;;;;;;5069070;28;20068;-55
2022/02/22 14:23:55;;;;;;;11.60;2.33;;;8.10;43.60;;;;;;5087614;28;20044;-57
2022/02/22 14:27:20;;;;;;;7.38;1.77;;;8.00;44.10;;;;;;5064000;28;20070;-55
2022/02/22 14:30:48;;;;;;;9.85;2.20;;;7.90;46.70;;;;;;5074888;28;20119;-57
2022/02/22 14:34:11;;;;;;;11.75;2.47;;;7.90;49.90;;;;;;5087522;28;20028;-54
2022/02/22 14:37:36;;;;;;;14.50;2.78;;;7.80;50.50;;;;;;5070077;28;20522;-51
2022/02/22 14:41:02;;;;;;;8.23;3.05;;;7.80;51.20;;;;;;5078126;28;20070;-56
2022/02/22 14:44:27;;;;;;;12.02;2.15;;;7.70;51.90;;;;;;5075929;28;20107;-51
2022/02/22 14:47:53;;;;;;;20.05;3.05;;;7.60;54.60;;;;;;5088216;28;20040;-52
2022/02/22 14:51:18;;;;;;;11.75;2.30;;;7.50;55.80;;;;;;5076872;28;20108;-54
2022/02/22 14:54:43;;;;;;;9.38;2.45;;;7.50;56.90;;;;;;5047528;28;20037;-56
2022/02/22 14:58:09;;;;;;;16.48;2.53;;;7.40;58.00;;;;;;5083620;28;20031;-54
2022/02/22 15:01:34;;;;;;;12.70;2.83;;;7.40;59.60;;;;;;5082509;28;20652;-55
2022/02/22 15:04:59;;;;;;;8.60;2.50;;;7.30;60.20;;;;;;5047470;28;20044;-57
2022/02/22 15:08:25;;;;;;;9.05;2.00;;;7.20;58.30;;;;;;5084784;28;20499;-54
2022/02/22 15:11:50;;;;;;;10.20;2.95;;;7.20;58.60;;;;;;5082237;28;20036;-56
2022/02/22 15:15:16;;;;;;;9.45;2.50;;;7.10;59.10;;;;;;5084356;28;20044;-57
2022/02/22 15:18:41;;;;;;;11.10;2.20;;;7.10;59.40;;;;;;5079361;28;20073;-55
2022/02/22 15:22:06;;;;;;;10.98;3.25;;;7.00;59.90;;;;;;5068662;28;20060;-54
2022/02/22 15:25:31;;;;;;;11.52;2.35;;;6.90;57.90;;;;;;5080838;28;20396;-54
2022/02/22 15:28:57;;;;;;;14.38;2.35;;;6.90;58.70;;;;;;5051304;28;20132;-55
2022/02/22 15:32:22;;;;;;;14.35;2.70;;;6.80;60.70;;;;;;5074201;28;20110;-56
2022/02/22 15:35:48;;;;;;;10.93;2.78;;;6.80;59.70;;;;;;5080343;28;20051;-53
2022/02/22 15:39:13;;;;;;;8.88;2.00;;;6.70;60.00;;;;;;5087659;28;20043;-55
2022/02/22 15:42:38;;;;;;;10.85;2.90;;;6.60;60.50;;;;;;5090727;28;20480;-52
2022/02/22 15:46:04;;;;;;;6.38;1.95;;;6.60;58.70;;;;;;5067423;28;20118;-55
2022/02/22 15:49:29;;;;;;;9.55;1.98;;;6.50;60.90;;;;;;5085791;28;20032;-55
2022/02/22 15:52:54;;;;;;;18.55;3.70;;;6.40;62.40;;;;;;5080162;28;20420;-55
2022/02/22 15:56:20;;;;;;;9.32;2.42;;;6.30;62.90;;;;;;5067479;28;20040;-56
2022/02/22 15:59:45;;;;;;;8.93;1.60;;;6.20;63.90;;;;;;5070969;28;20629;-55
2022/02/22 16:03:11;;;;;;;8.90;2.03;;;6.20;66.00;;;;;;5083039;28;20035;-53
2022/02/22 16:06:36;;;;;;;10.60;1.83;;;6.10;66.80;;;;;;5086991;28;20090;-52
2022/02/22 16:10:03;;;;;;;9.50;2.22;;;6.00;68.00;;;;;;5068281;28;20024;-52
2022/02/22 16:13:27;;;;;;;8.82;2.47;;;6.00;69.50;;;;;;5074546;28;20500;-53
2022/02/22 16:16:52;;;;;;;11.63;2.35;;;5.90;71.20;;;;;;5079711;28;20093;-55
2022/02/22 16:20:18;;;;;;;12.88;2.38;;;5.90;73.10;;;;;;5065451;28;20048;-52
2022/02/22 16:23:43;;;;;;;9.85;2.70;;;5.80;75.00;;;;;;5083797;28;20044;-54
2022/02/22 16:27:08;;;;;;;21.38;2.78;;;5.80;76.20;;;;;;5050499;28;20037;-56
2022/02/22 16:30:35;;;;;;;11.18;2.30;;;5.90;76.30;;;;;;5070943;28;20036;-54
2022/02/22 16:33:59;;;;;;;9.65;2.38;;;5.90;76.50;;;;;;5067319;28;20042;-56
2022/02/22 16:37:24;;;;;;;10.00;2.90;;;5.90;75.90;;;;;;5090597;28;20036;-54
2022/02/22 16:40:50;;;;;;;8.05;2.17;;;6.00;75.50;;;;;;5066533;28;20429;-51
2022/02/22 16:43:35;;;;;;;12.05;2.47;;;5.90;82.00;;;;;;5071521;28;20131;-52
2022/02/22 16:46:06;;;;;;;8.20;2.97;;;5.90;78.00;;;;;;5090797;28;20103;-50
2022/02/22 16:48:32;;;;;;;8.10;2.65;;;5.90;78.20;;;;;;5088295;28;20494;-48
2022/02/22 16:51:00;;;;;;;12.15;3.03;;;6.00;76.90;;;;;;5090521;28;20028;-47
2022/02/22 16:53:26;;;;;;;11.20;2.22;;;6.00;77.00;;;;;;5088230;28;20066;-50
2022/02/22 16:55:51;;;;;;;6.72;3.08;;;6.10;76.90;;;;;;5090250;28;20523;-46
2022/02/22 16:58:19;;;;;;;10.63;2.55;;;6.20;78.10;;;;;;5087906;28;20369;-48
2022/02/22 17:00:45;;;;;;;9.88;2.83;;;6.20;78.00;;;;;;5090332;28;20047;-48